This is the latest recevied weather packets stored in our database for station/object HA6IFZ-10. If no packets are shown the sender has not sent any weather packets the latest 10 day(s).
| Time | Temp. | Humidity | Pressure | Rain* | Wind** | Luminosity | Snow |
|---|---|---|---|---|---|---|---|
| 1787908687 | 24.44° C | 34% | 1027.9 hPa | - | - | - | - |
| 1787907787 | 23.89° C | 35% | 1028.3 hPa | - | - | - | - |
| 1787906887 | 25° C | 33% | 1028.1 hPa | - | - | - | - |
| 1787905987 | 25° C | 35% | 1028 hPa | - | - | - | - |
| 1787905087 | 24.44° C | 35% | 1028.2 hPa | - | - | - | - |
| 1787904187 | 24.44° C | 35% | 1028.1 hPa | - | - | - | - |
| 1787903287 | 24.44° C | 37% | 1027.9 hPa | - | - | - | - |
| 1787902387 | 24.44° C | 38% | 1027.7 hPa | - | - | - | - |
| 1787901487 | 23.89° C | 40% | 1027.9 hPa | - | - | - | - |
| 1787900587 | 23.33° C | 42% | 1027.8 hPa | - | - | - | - |
| 1787899686 | 23.89° C | 42% | 1028 hPa | - | - | - | - |
| 1787898786 | 23.33° C | 43% | 1028.1 hPa | - | - | - | - |
| 1787897886 | 23.33° C | 44% | 1028.2 hPa | - | - | - | - |
| 1787896986 | 26.67° C | 37% | 1028.3 hPa | - | - | - | - |
| 1787896086 | 27.78° C | 35% | 1028.1 hPa | - | - | - | - |
| 1787895186 | 27.78° C | 35% | 1028 hPa | - | - | - | - |
| 1787894286 | 24.44° C | 42% | 1028.1 hPa | - | - | - | - |
| 1787892488 | 23.89° C | 42% | 1028.1 hPa | - | - | - | - |
| 1787891588 | 20.56° C | 50% | 1028.1 hPa | - | - | - | - |
| 1787890688 | 19.44° C | 53% | 1028 hPa | - | - | - | - |
| 1787889788 | 17.22° C | 62% | 1027.8 hPa | - | - | - | - |
| 1787888888 | 17.22° C | 62% | 1027.8 hPa | - | - | - | - |
| 1787887988 | 17.78° C | 60% | 1027.7 hPa | - | - | - | - |
| 1787887088 | 17.78° C | 59% | 1027.8 hPa | - | - | - | - |
| 1787886188 | 18.33° C | 55% | 1027.4 hPa | - | - | - | - |
* Rain since midnight (hover to see other rain measurements)
** Current wind speed in m/s (hover to see current wind gust speed)